North Bergen, New Jersey
Current Conditions -  °F | °C
As of 2:51 AM on Sunday 26 Oct 2014 (Local Time) from KNYC Reporting Station
Broken Clouds Broken Clouds  
Wind Chill: 58°   Ceiling: 11000
Heat Index: 58°   Visibility: 10mi
Dew Point: 47°   Wind: 7mph
Humidity: 67%   Direction: 280°W
Pressure: 29.58"   Gusts: NA
Location:  40.78°N, 74.03°W
Report Text: KNYC 260651Z AUTO 28006KT 10SM BKN110 14/08 A2958 RMK AO2 SLP007 T01440083 $
Loading
Personal Weather Stations






























Interactive Weather Map
Tropical Storm Tracking
New forecast layout! Learn more

10-Day Weather Forecast

Advertisements
Track Severe Weather on mobile